sensor_id;sensor_type;location;lat;lon;timestamp;P1;durP1;ratioP1;P2;durP2;ratioP2
56343;SDS011;42245;42.058;24.700;2024-01-16T04:03:27;8.23;;;4.70;;
56343;SDS011;42245;42.058;24.700;2024-01-16T04:05:52;6.30;;;3.80;;
56343;SDS011;42245;42.058;24.700;2024-01-16T04:08:18;8.83;;;4.17;;
56343;SDS011;42245;42.058;24.700;2024-01-16T04:10:43;9.07;;;4.87;;
56343;SDS011;42245;42.058;24.700;2024-01-16T04:13:09;6.53;;;4.03;;
56343;SDS011;42245;42.058;24.700;2024-01-16T04:15:37;8.03;;;4.53;;
56343;SDS011;42245;42.058;24.700;2024-01-16T04:18:03;7.37;;;4.00;;
56343;SDS011;42245;42.058;24.700;2024-01-16T04:20:29;8.70;;;4.53;;
56343;SDS011;42245;42.058;24.700;2024-01-16T04:22:54;7.27;;;4.40;;
56343;SDS011;42245;42.058;24.700;2024-01-16T04:25:21;8.47;;;4.83;;
56343;SDS011;42245;42.058;24.700;2024-01-16T04:27:47;8.03;;;5.03;;
56343;SDS011;42245;42.058;24.700;2024-01-16T04:30:12;6.67;;;4.30;;
56343;SDS011;42245;42.058;24.700;2024-01-16T04:32:38;7.97;;;4.13;;
56343;SDS011;42245;42.058;24.700;2024-01-16T04:35:03;6.03;;;3.90;;
56343;SDS011;42245;42.058;24.700;2024-01-16T04:37:29;6.87;;;4.57;;
56343;SDS011;42245;42.058;24.700;2024-01-16T04:39:54;7.73;;;4.40;;
56343;SDS011;42245;42.058;24.700;2024-01-16T04:42:20;7.13;;;4.03;;
56343;SDS011;42245;42.058;24.700;2024-01-16T04:44:45;7.03;;;4.00;;
56343;SDS011;42245;42.058;24.700;2024-01-16T04:47:11;7.13;;;5.03;;
56343;SDS011;42245;42.058;24.700;2024-01-16T04:49:36;6.23;;;4.33;;
56343;SDS011;42245;42.058;24.700;2024-01-16T04:52:02;9.10;;;4.40;;
56343;SDS011;42245;42.058;24.700;2024-01-16T04:54:28;7.07;;;4.70;;
56343;SDS011;42245;42.058;24.700;2024-01-16T04:56:53;15.00;;;8.90;;
56343;SDS011;42245;42.058;24.700;2024-01-16T04:59:19;14.83;;;8.37;;
56343;SDS011;42245;42.058;24.700;2024-01-16T05:01:45;13.70;;;8.10;;
56343;SDS011;42245;42.058;24.700;2024-01-16T05:04:10;10.47;;;6.47;;
56343;SDS011;42245;42.058;24.700;2024-01-16T05:06:36;8.77;;;5.20;;
56343;SDS011;42245;42.058;24.700;2024-01-16T05:09:01;10.10;;;5.50;;
56343;SDS011;42245;42.058;24.700;2024-01-16T05:11:28;7.73;;;4.37;;
56343;SDS011;42245;42.058;24.700;2024-01-16T05:13:53;5.90;;;4.23;;
56343;SDS011;42245;42.058;24.700;2024-01-16T05:16:26;5.40;;;3.80;;
56343;SDS011;42245;42.058;24.700;2024-01-16T05:18:52;5.90;;;3.90;;
56343;SDS011;42245;42.058;24.700;2024-01-16T05:21:19;4.97;;;3.23;;
56343;SDS011;42245;42.058;24.700;2024-01-16T05:23:45;7.77;;;3.50;;
56343;SDS011;42245;42.058;24.700;2024-01-16T05:26:10;5.70;;;3.47;;
56343;SDS011;42245;42.058;24.700;2024-01-16T05:28:35;8.97;;;3.50;;
56343;SDS011;42245;42.058;24.700;2024-01-16T05:31:01;4.73;;;3.03;;
56343;SDS011;42245;42.058;24.700;2024-01-16T05:33:27;4.80;;;3.07;;
56343;SDS011;42245;42.058;24.700;2024-01-16T05:35:52;3.97;;;3.20;;
56343;SDS011;42245;42.058;24.700;2024-01-16T05:38:18;3.70;;;3.00;;
56343;SDS011;42245;42.058;24.700;2024-01-16T05:40:43;7.77;;;4.57;;
56343;SDS011;42245;42.058;24.700;2024-01-16T05:43:09;12.57;;;6.83;;
56343;SDS011;42245;42.058;24.700;2024-01-16T05:45:34;17.43;;;9.83;;
56343;SDS011;42245;42.058;24.700;2024-01-16T05:48:00;23.87;;;13.20;;
56343;SDS011;42245;42.058;24.700;2024-01-16T05:50:25;10.33;;;5.97;;
56343;SDS011;42245;42.058;24.700;2024-01-16T05:52:50;8.60;;;4.57;;
56343;SDS011;42245;42.058;24.700;2024-01-16T05:55:16;5.47;;;3.80;;
56343;SDS011;42245;42.058;24.700;2024-01-16T05:57:42;7.33;;;4.50;;
56343;SDS011;42245;42.058;24.700;2024-01-16T06:00:08;6.43;;;3.57;;
56343;SDS011;42245;42.058;24.700;2024-01-16T06:02:34;7.90;;;4.10;;
56343;SDS011;42245;42.058;24.700;2024-01-16T06:05:00;8.37;;;4.50;;
56343;SDS011;42245;42.058;24.700;2024-01-16T06:07:25;9.57;;;4.53;;
56343;SDS011;42245;42.058;24.700;2024-01-16T06:09:51;6.43;;;4.03;;
56343;SDS011;42245;42.058;24.700;2024-01-16T06:12:16;6.47;;;4.10;;
56343;SDS011;42245;42.058;24.700;2024-01-16T06:14:42;6.37;;;4.27;;
56343;SDS011;42245;42.058;24.700;2024-01-16T06:17:08;6.73;;;4.10;;
56343;SDS011;42245;42.058;24.700;2024-01-16T06:19:33;7.20;;;4.60;;
56343;SDS011;42245;42.058;24.700;2024-01-16T06:21:59;7.13;;;4.57;;
56343;SDS011;42245;42.058;24.700;2024-01-16T06:24:24;7.40;;;4.73;;
56343;SDS011;42245;42.058;24.700;2024-01-16T06:26:50;6.60;;;4.47;;
56343;SDS011;42245;42.058;24.700;2024-01-16T06:29:15;8.70;;;4.60;;
56343;SDS011;42245;42.058;24.700;2024-01-16T06:31:41;7.70;;;4.68;;
56343;SDS011;42245;42.058;24.700;2024-01-16T06:34:06;7.43;;;4.33;;
56343;SDS011;42245;42.058;24.700;2024-01-16T06:36:32;5.90;;;4.35;;
56343;SDS011;42245;42.058;24.700;2024-01-16T06:38:57;5.77;;;4.17;;
56343;SDS011;42245;42.058;24.700;2024-01-16T06:41:23;7.50;;;4.50;;
56343;SDS011;42245;42.058;24.700;2024-01-16T06:43:48;7.10;;;4.30;;
56343;SDS011;42245;42.058;24.700;2024-01-16T06:46:14;4.72;;;3.75;;
56343;SDS011;42245;42.058;24.700;2024-01-16T06:48:39;6.97;;;4.30;;
56343;SDS011;42245;42.058;24.700;2024-01-16T06:51:05;5.38;;;3.88;;
56343;SDS011;42245;42.058;24.700;2024-01-16T06:53:30;6.05;;;4.13;;
56343;SDS011;42245;42.058;24.700;2024-01-16T06:55:56;4.68;;;3.65;;
56343;SDS011;42245;42.058;24.700;2024-01-16T06:58:21;6.28;;;3.97;;
56343;SDS011;42245;42.058;24.700;2024-01-16T07:00:47;5.72;;;3.70;;
56343;SDS011;42245;42.058;24.700;2024-01-16T07:03:13;4.88;;;3.65;;
56343;SDS011;42245;42.058;24.700;2024-01-16T07:05:39;5.55;;;3.92;;
56343;SDS011;42245;42.058;24.700;2024-01-16T07:08:06;4.72;;;3.47;;
56343;SDS011;42245;42.058;24.700;2024-01-16T07:10:32;4.65;;;3.42;;
56343;SDS011;42245;42.058;24.700;2024-01-16T07:12:59;5.00;;;3.58;;
56343;SDS011;42245;42.058;24.700;2024-01-16T07:15:25;5.35;;;3.50;;
56343;SDS011;42245;42.058;24.700;2024-01-16T07:17:50;4.82;;;3.40;;
56343;SDS011;42245;42.058;24.700;2024-01-16T07:20:16;5.43;;;3.45;;
56343;SDS011;42245;42.058;24.700;2024-01-16T07:22:41;5.32;;;3.45;;
56343;SDS011;42245;42.058;24.700;2024-01-16T07:25:07;4.32;;;3.20;;
56343;SDS011;42245;42.058;24.700;2024-01-16T07:27:33;5.32;;;3.22;;
56343;SDS011;42245;42.058;24.700;2024-01-16T07:29:59;4.07;;;3.60;;
56343;SDS011;42245;42.058;24.700;2024-01-16T07:32:24;4.70;;;3.40;;
56343;SDS011;42245;42.058;24.700;2024-01-16T07:34:50;4.55;;;3.58;;
56343;SDS011;42245;42.058;24.700;2024-01-16T07:37:17;4.32;;;3.30;;
56343;SDS011;42245;42.058;24.700;2024-01-16T07:39:43;4.60;;;3.10;;
56343;SDS011;42245;42.058;24.700;2024-01-16T07:42:09;3.80;;;3.20;;
56343;SDS011;42245;42.058;24.700;2024-01-16T07:44:34;5.40;;;3.40;;
56343;SDS011;42245;42.058;24.700;2024-01-16T07:47:00;3.43;;;2.90;;
56343;SDS011;42245;42.058;24.700;2024-01-16T07:49:25;3.30;;;2.97;;
56343;SDS011;42245;42.058;24.700;2024-01-16T07:51:51;4.05;;;3.05;;
56343;SDS011;42245;42.058;24.700;2024-01-16T07:54:17;4.65;;;3.63;;
56343;SDS011;42245;42.058;24.700;2024-01-16T07:56:42;4.40;;;3.53;;
56343;SDS011;42245;42.058;24.700;2024-01-16T07:59:08;4.60;;;3.07;;
56343;SDS011;42245;42.058;24.700;2024-01-16T08:01:33;5.47;;;3.40;;
56343;SDS011;42245;42.058;24.700;2024-01-16T08:03:59;3.10;;;2.80;;
56343;SDS011;42245;42.058;24.700;2024-01-16T08:06:24;3.17;;;2.87;;
56343;SDS011;42245;42.058;24.700;2024-01-16T08:08:50;3.40;;;2.77;;
56343;SDS011;42245;42.058;24.700;2024-01-16T08:11:17;3.90;;;2.80;;
56343;SDS011;42245;42.058;24.700;2024-01-16T08:13:43;3.40;;;2.93;;
56343;SDS011;42245;42.058;24.700;2024-01-16T08:16:09;4.47;;;3.03;;
56343;SDS011;42245;42.058;24.700;2024-01-16T08:18:34;4.80;;;3.13;;
56343;SDS011;42245;42.058;24.700;2024-01-16T08:21:00;6.37;;;2.80;;
56343;SDS011;42245;42.058;24.700;2024-01-16T08:23:26;3.87;;;2.70;;
56343;SDS011;42245;42.058;24.700;2024-01-16T08:25:51;3.17;;;2.77;;
56343;SDS011;42245;42.058;24.700;2024-01-16T08:28:17;3.30;;;2.83;;
56343;SDS011;42245;42.058;24.700;2024-01-16T08:30:43;4.30;;;2.70;;
56343;SDS011;42245;42.058;24.700;2024-01-16T08:33:08;3.10;;;2.80;;
56343;SDS011;42245;42.058;24.700;2024-01-16T08:35:35;3.42;;;2.83;;
56343;SDS011;42245;42.058;24.700;2024-01-16T08:38:00;3.70;;;2.70;;
56343;SDS011;42245;42.058;24.700;2024-01-16T08:40:26;4.33;;;3.10;;
56343;SDS011;42245;42.058;24.700;2024-01-16T08:42:51;3.30;;;2.60;;
56343;SDS011;42245;42.058;24.700;2024-01-16T08:45:22;3.30;;;2.47;;
56343;SDS011;42245;42.058;24.700;2024-01-16T08:47:48;3.93;;;2.37;;
56343;SDS011;42245;42.058;24.700;2024-01-16T08:50:14;4.35;;;2.55;;
56343;SDS011;42245;42.058;24.700;2024-01-16T08:52:40;2.27;;;2.03;;
56343;SDS011;42245;42.058;24.700;2024-01-16T08:55:05;2.77;;;2.33;;
56343;SDS011;42245;42.058;24.700;2024-01-16T08:57:31;3.35;;;2.47;;
56343;SDS011;42245;42.058;24.700;2024-01-16T08:59:57;3.10;;;2.53;;
56343;SDS011;42245;42.058;24.700;2024-01-16T09:02:22;3.00;;;2.53;;
56343;SDS011;42245;42.058;24.700;2024-01-16T09:04:49;3.00;;;2.42;;
56343;SDS011;42245;42.058;24.700;2024-01-16T09:07:15;3.00;;;2.50;;
56343;SDS011;42245;42.058;24.700;2024-01-16T09:09:42;2.83;;;2.50;;
56343;SDS011;42245;42.058;24.700;2024-01-16T09:12:08;4.22;;;2.30;;
56343;SDS011;42245;42.058;24.700;2024-01-16T09:14:34;2.88;;;2.13;;
56343;SDS011;42245;42.058;24.700;2024-01-16T09:16:59;3.47;;;2.13;;
56343;SDS011;42245;42.058;24.700;2024-01-16T09:19:25;2.95;;;2.33;;
56343;SDS011;42245;42.058;24.700;2024-01-16T09:21:50;3.05;;;2.58;;
56343;SDS011;42245;42.058;24.700;2024-01-16T09:24:16;2.53;;;2.17;;
56343;SDS011;42245;42.058;24.700;2024-01-16T09:26:41;2.55;;;2.10;;
56343;SDS011;42245;42.058;24.700;2024-01-16T09:29:08;3.75;;;2.22;;
56343;SDS011;42245;42.058;24.700;2024-01-16T09:31:34;5.20;;;2.35;;
56343;SDS011;42245;42.058;24.700;2024-01-16T09:34:00;3.90;;;2.00;;
56343;SDS011;42245;42.058;24.700;2024-01-16T09:36:26;2.05;;;1.80;;
56343;SDS011;42245;42.058;24.700;2024-01-16T09:38:52;2.08;;;1.80;;
56343;SDS011;42245;42.058;24.700;2024-01-16T09:41:17;2.63;;;2.00;;
56343;SDS011;42245;42.058;24.700;2024-01-16T09:43:44;2.97;;;1.98;;
56343;SDS011;42245;42.058;24.700;2024-01-16T09:46:11;1.73;;;1.63;;
56343;SDS011;42245;42.058;24.700;2024-01-16T09:48:37;3.25;;;1.95;;
56343;SDS011;42245;42.058;24.700;2024-01-16T09:51:02;2.38;;;1.75;;
56343;SDS011;42245;42.058;24.700;2024-01-16T09:53:28;2.40;;;2.10;;
56343;SDS011;42245;42.058;24.700;2024-01-16T09:55:54;2.42;;;1.85;;
56343;SDS011;42245;42.058;24.700;2024-01-16T09:58:20;1.80;;;1.60;;
56343;SDS011;42245;42.058;24.700;2024-01-16T10:00:46;1.55;;;1.38;;
56343;SDS011;42245;42.058;24.700;2024-01-16T10:03:12;2.35;;;1.80;;
56343;SDS011;42245;42.058;24.700;2024-01-16T10:05:39;1.73;;;1.52;;
56343;SDS011;42245;42.058;24.700;2024-01-16T10:08:05;1.88;;;1.60;;
56343;SDS011;42245;42.058;24.700;2024-01-16T10:10:33;1.90;;;1.60;;
56343;SDS011;42245;42.058;24.700;2024-01-16T10:12:58;1.85;;;1.60;;
56343;SDS011;42245;42.058;24.700;2024-01-16T10:15:24;1.90;;;1.50;;
56343;SDS011;42245;42.058;24.700;2024-01-16T10:17:50;1.50;;;1.40;;
56343;SDS011;42245;42.058;24.700;2024-01-16T10:20:15;1.95;;;1.38;;
56343;SDS011;42245;42.058;24.700;2024-01-16T10:22:54;2.15;;;1.40;;
56343;SDS011;42245;42.058;24.700;2024-01-16T10:25:21;2.00;;;1.45;;
56343;SDS011;42245;42.058;24.700;2024-01-16T10:27:47;1.60;;;1.50;;
56343;SDS011;42245;42.058;24.700;2024-01-16T10:30:13;1.60;;;1.50;;
56343;SDS011;42245;42.058;24.700;2024-01-16T10:32:39;1.92;;;1.73;;
56343;SDS011;42245;42.058;24.700;2024-01-16T10:35:06;1.58;;;1.42;;
56343;SDS011;42245;42.058;24.700;2024-01-16T10:40:17;1.67;;;1.50;;
56343;SDS011;42245;42.058;24.700;2024-01-16T10:45:42;1.73;;;1.35;;
56343;SDS011;42245;42.058;24.700;2024-01-16T10:48:07;1.65;;;1.40;;
56343;SDS011;42245;42.058;24.700;2024-01-16T10:50:34;1.92;;;1.58;;
56343;SDS011;42245;42.058;24.700;2024-01-16T10:53:03;1.67;;;1.55;;
56343;SDS011;42245;42.058;24.700;2024-01-16T10:55:29;1.65;;;1.50;;
56343;SDS011;42245;42.058;24.700;2024-01-16T10:57:55;1.92;;;1.38;;
56343;SDS011;42245;42.058;24.700;2024-01-16T11:00:22;1.40;;;1.30;;
56343;SDS011;42245;42.058;24.700;2024-01-16T11:02:59;2.33;;;1.40;;
56343;SDS011;42245;42.058;24.700;2024-01-16T11:05:25;1.45;;;1.35;;
56343;SDS011;42245;42.058;24.700;2024-01-16T11:07:53;2.22;;;1.60;;
56343;SDS011;42245;42.058;24.700;2024-01-16T11:10:19;4.90;;;3.92;;
56343;SDS011;42245;42.058;24.700;2024-01-16T11:12:45;1.65;;;1.40;;
56343;SDS011;42245;42.058;24.700;2024-01-16T11:15:11;1.98;;;1.35;;
56343;SDS011;42245;42.058;24.700;2024-01-16T11:17:38;2.38;;;1.63;;
56343;SDS011;42245;42.058;24.700;2024-01-16T11:20:05;4.20;;;1.60;;
56343;SDS011;42245;42.058;24.700;2024-01-16T11:22:36;1.27;;;1.17;;
56343;SDS011;42245;42.058;24.700;2024-01-16T11:25:10;1.88;;;1.35;;
56343;SDS011;42245;42.058;24.700;2024-01-16T11:27:39;4.63;;;2.20;;
56343;SDS011;42245;42.058;24.700;2024-01-16T11:30:06;1.38;;;1.27;;
56343;SDS011;42245;42.058;24.700;2024-01-16T11:32:36;2.55;;;1.45;;
56343;SDS011;42245;42.058;24.700;2024-01-16T11:35:05;2.90;;;1.98;;
56343;SDS011;42245;42.058;24.700;2024-01-16T11:37:31;1.77;;;1.25;;
56343;SDS011;42245;42.058;24.700;2024-01-16T11:42:42;1.80;;;1.25;;
56343;SDS011;42245;42.058;24.700;2024-01-16T11:45:08;1.48;;;1.27;;
56343;SDS011;42245;42.058;24.700;2024-01-16T11:48:11;1.88;;;1.42;;
56343;SDS011;42245;42.058;24.700;2024-01-16T11:50:41;1.55;;;1.30;;
56343;SDS011;42245;42.058;24.700;2024-01-16T11:53:07;1.40;;;1.30;;
56343;SDS011;42245;42.058;24.700;2024-01-16T11:56:00;1.38;;;1.10;;
56343;SDS011;42245;42.058;24.700;2024-01-16T12:01:17;1.52;;;1.02;;
56343;SDS011;42245;42.058;24.700;2024-01-16T12:03:43;1.63;;;1.25;;
56343;SDS011;42245;42.058;24.700;2024-01-16T12:06:08;4.82;;;1.05;;
56343;SDS011;42245;42.058;24.700;2024-01-16T12:08:34;0.93;;;0.93;;
56343;SDS011;42245;42.058;24.700;2024-01-16T12:11:02;1.48;;;1.00;;
56343;SDS011;42245;42.058;24.700;2024-01-16T12:13:27;1.63;;;1.00;;
56343;SDS011;42245;42.058;24.700;2024-01-16T12:16:03;0.95;;;0.93;;
56343;SDS011;42245;42.058;24.700;2024-01-16T12:18:29;1.38;;;1.02;;
56343;SDS011;42245;42.058;24.700;2024-01-16T12:20:55;1.55;;;1.30;;
56343;SDS011;42245;42.058;24.700;2024-01-16T12:23:20;1.48;;;1.23;;
56343;SDS011;42245;42.058;24.700;2024-01-16T12:25:51;1.30;;;1.17;;
56343;SDS011;42245;42.058;24.700;2024-01-16T12:28:17;1.20;;;1.10;;
56343;SDS011;42245;42.058;24.700;2024-01-16T12:30:48;1.10;;;1.00;;
56343;SDS011;42245;42.058;24.700;2024-01-16T12:33:14;1.35;;;1.10;;
56343;SDS011;42245;42.058;24.700;2024-01-16T12:35:42;2.20;;;1.00;;
56343;SDS011;42245;42.058;24.700;2024-01-16T12:38:10;1.30;;;1.20;;
56343;SDS011;42245;42.058;24.700;2024-01-16T12:40:39;1.30;;;1.20;;
56343;SDS011;42245;42.058;24.700;2024-01-16T12:43:05;1.20;;;1.10;;
56343;SDS011;42245;42.058;24.700;2024-01-16T12:45:34;2.30;;;1.30;;
56343;SDS011;42245;42.058;24.700;2024-01-16T12:48:00;1.10;;;1.00;;
56343;SDS011;42245;42.058;24.700;2024-01-16T12:50:28;1.52;;;1.00;;
56343;SDS011;42245;42.058;24.700;2024-01-16T12:53:04;1.20;;;1.10;;
56343;SDS011;42245;42.058;24.700;2024-01-16T12:55:35;2.05;;;0.90;;
56343;SDS011;42245;42.058;24.700;2024-01-16T12:58:17;4.35;;;0.98;;
56343;SDS011;42245;42.058;24.700;2024-01-16T13:00:49;1.33;;;0.98;;
56343;SDS011;42245;42.058;24.700;2024-01-16T13:03:19;1.33;;;1.08;;
56343;SDS011;42245;42.058;24.700;2024-01-16T13:05:54;3.00;;;1.30;;
56343;SDS011;42245;42.058;24.700;2024-01-16T13:08:20;1.38;;;1.05;;
56343;SDS011;42245;42.058;24.700;2024-01-16T13:10:52;1.35;;;1.20;;
56343;SDS011;42245;42.058;24.700;2024-01-16T13:13:28;1.35;;;1.10;;
56343;SDS011;42245;42.058;24.700;2024-01-16T13:15:53;1.63;;;1.30;;
56343;SDS011;42245;42.058;24.700;2024-01-16T13:20:47;1.55;;;1.20;;
56343;SDS011;42245;42.058;24.700;2024-01-16T13:23:14;1.52;;;1.13;;
56343;SDS011;42245;42.058;24.700;2024-01-16T13:25:39;1.85;;;1.40;;
56343;SDS011;42245;42.058;24.700;2024-01-16T13:28:07;4.10;;;1.50;;
56343;SDS011;42245;42.058;24.700;2024-01-16T13:30:33;1.45;;;1.20;;
56343;SDS011;42245;42.058;24.700;2024-01-16T13:32:58;1.33;;;1.23;;
56343;SDS011;42245;42.058;24.700;2024-01-16T13:35:24;3.97;;;1.10;;
56343;SDS011;42245;42.058;24.700;2024-01-16T13:37:49;1.67;;;1.27;;
56343;SDS011;42245;42.058;24.700;2024-01-16T13:40:15;2.20;;;1.33;;
56343;SDS011;42245;42.058;24.700;2024-01-16T13:42:44;2.13;;;1.20;;
56343;SDS011;42245;42.058;24.700;2024-01-16T13:45:10;1.50;;;1.20;;
56343;SDS011;42245;42.058;24.700;2024-01-16T13:47:38;1.75;;;1.33;;
56343;SDS011;42245;42.058;24.700;2024-01-16T13:50:05;1.50;;;1.10;;
56343;SDS011;42245;42.058;24.700;2024-01-16T13:52:32;1.50;;;1.15;;
56343;SDS011;42245;42.058;24.700;2024-01-16T13:54:57;1.33;;;1.10;;
56343;SDS011;42245;42.058;24.700;2024-01-16T13:57:24;1.58;;;1.20;;
56343;SDS011;42245;42.058;24.700;2024-01-16T13:59:49;2.08;;;1.30;;
56343;SDS011;42245;42.058;24.700;2024-01-16T14:02:16;1.67;;;1.33;;
56343;SDS011;42245;42.058;24.700;2024-01-16T14:04:41;1.42;;;1.20;;
56343;SDS011;42245;42.058;24.700;2024-01-16T14:07:07;2.30;;;1.50;;
56343;SDS011;42245;42.058;24.700;2024-01-16T14:09:33;1.90;;;1.30;;
56343;SDS011;42245;42.058;24.700;2024-01-16T14:11:59;1.85;;;1.20;;
56343;SDS011;42245;42.058;24.700;2024-01-16T14:14:25;1.83;;;1.20;;
56343;SDS011;42245;42.058;24.700;2024-01-16T14:16:50;1.30;;;1.20;;
56343;SDS011;42245;42.058;24.700;2024-01-16T14:19:16;1.90;;;1.33;;
56343;SDS011;42245;42.058;24.700;2024-01-16T14:21:42;1.38;;;1.10;;
56343;SDS011;42245;42.058;24.700;2024-01-16T14:24:07;1.45;;;1.10;;
56343;SDS011;42245;42.058;24.700;2024-01-16T14:26:34;2.45;;;1.17;;
56343;SDS011;42245;42.058;24.700;2024-01-16T14:29:00;1.30;;;1.10;;
56343;SDS011;42245;42.058;24.700;2024-01-16T14:31:25;2.90;;;1.30;;
56343;SDS011;42245;42.058;24.700;2024-01-16T14:33:52;2.83;;;1.40;;
56343;SDS011;42245;42.058;24.700;2024-01-16T14:36:18;1.70;;;1.25;;
56343;SDS011;42245;42.058;24.700;2024-01-16T14:38:44;1.63;;;1.10;;
56343;SDS011;42245;42.058;24.700;2024-01-16T14:41:10;1.50;;;1.20;;
56343;SDS011;42245;42.058;24.700;2024-01-16T14:43:37;1.70;;;1.00;;
56343;SDS011;42245;42.058;24.700;2024-01-16T14:46:03;1.35;;;1.20;;
56343;SDS011;42245;42.058;24.700;2024-01-16T14:48:29;1.75;;;1.00;;
56343;SDS011;42245;42.058;24.700;2024-01-16T14:50:55;1.77;;;1.10;;
56343;SDS011;42245;42.058;24.700;2024-01-16T14:53:21;1.70;;;1.02;;
56343;SDS011;42245;42.058;24.700;2024-01-16T14:55:47;1.27;;;1.13;;
56343;SDS011;42245;42.058;24.700;2024-01-16T14:58:13;1.88;;;1.23;;
56343;SDS011;42245;42.058;24.700;2024-01-16T15:00:39;1.90;;;1.70;;
56343;SDS011;42245;42.058;24.700;2024-01-16T15:03:04;1.52;;;1.25;;
56343;SDS011;42245;42.058;24.700;2024-01-16T15:05:30;1.20;;;1.10;;
56343;SDS011;42245;42.058;24.700;2024-01-16T15:07:56;1.55;;;1.20;;
56343;SDS011;42245;42.058;24.700;2024-01-16T15:10:21;8.98;;;5.85;;
56343;SDS011;42245;42.058;24.700;2024-01-16T15:12:47;7.80;;;5.10;;
56343;SDS011;42245;42.058;24.700;2024-01-16T15:15:13;6.75;;;5.97;;
56343;SDS011;42245;42.058;24.700;2024-01-16T15:17:40;6.65;;;4.60;;
56343;SDS011;42245;42.058;24.700;2024-01-16T15:20:07;3.22;;;2.60;;
56343;SDS011;42245;42.058;24.700;2024-01-16T15:22:40;2.75;;;2.40;;
56343;SDS011;42245;42.058;24.700;2024-01-16T15:25:06;2.80;;;1.33;;
56343;SDS011;42245;42.058;24.700;2024-01-16T15:27:32;2.17;;;1.30;;
56343;SDS011;42245;42.058;24.700;2024-01-16T15:29:58;1.35;;;1.20;;
56343;SDS011;42245;42.058;24.700;2024-01-16T15:32:24;1.60;;;1.20;;
56343;SDS011;42245;42.058;24.700;2024-01-16T15:34:50;3.17;;;1.33;;
56343;SDS011;42245;42.058;24.700;2024-01-16T15:37:16;1.13;;;1.02;;
56343;SDS011;42245;42.058;24.700;2024-01-16T15:39:41;1.92;;;1.30;;
56343;SDS011;42245;42.058;24.700;2024-01-16T15:42:07;1.10;;;1.00;;
56343;SDS011;42245;42.058;24.700;2024-01-16T15:44:32;1.45;;;1.15;;
56343;SDS011;42245;42.058;24.700;2024-01-16T15:46:58;2.60;;;1.17;;
56343;SDS011;42245;42.058;24.700;2024-01-16T15:49:28;1.52;;;1.20;;
56343;SDS011;42245;42.058;24.700;2024-01-16T15:51:54;1.67;;;1.30;;
56343;SDS011;42245;42.058;24.700;2024-01-16T15:54:20;2.00;;;1.70;;
56343;SDS011;42245;42.058;24.700;2024-01-16T15:56:46;2.35;;;1.35;;
56343;SDS011;42245;42.058;24.700;2024-01-16T15:59:12;1.50;;;1.17;;
56343;SDS011;42245;42.058;24.700;2024-01-16T16:01:38;2.20;;;1.30;;
56343;SDS011;42245;42.058;24.700;2024-01-16T16:04:04;1.83;;;1.30;;
56343;SDS011;42245;42.058;24.700;2024-01-16T16:06:39;2.13;;;1.58;;
56343;SDS011;42245;42.058;24.700;2024-01-16T16:09:05;2.15;;;1.42;;
56343;SDS011;42245;42.058;24.700;2024-01-16T16:11:36;1.88;;;1.60;;
56343;SDS011;42245;42.058;24.700;2024-01-16T16:14:12;2.13;;;1.40;;
56343;SDS011;42245;42.058;24.700;2024-01-16T16:16:38;2.15;;;1.35;;
56343;SDS011;42245;42.058;24.700;2024-01-16T16:19:05;1.52;;;1.30;;
56343;SDS011;42245;42.058;24.700;2024-01-16T16:21:31;1.85;;;1.55;;
56343;SDS011;42245;42.058;24.700;2024-01-16T16:23:57;3.58;;;1.25;;
56343;SDS011;42245;42.058;24.700;2024-01-16T16:29:01;48.65;;;14.27;;
56343;SDS011;42245;42.058;24.700;2024-01-16T16:31:34;1.65;;;1.20;;
56343;SDS011;42245;42.058;24.700;2024-01-16T16:34:01;2.92;;;1.40;;
56343;SDS011;42245;42.058;24.700;2024-01-16T16:36:27;1.50;;;1.10;;
56343;SDS011;42245;42.058;24.700;2024-01-16T16:38:53;1.60;;;1.40;;
56343;SDS011;42245;42.058;24.700;2024-01-16T16:41:21;1.80;;;1.40;;
56343;SDS011;42245;42.058;24.700;2024-01-16T16:43:50;2.05;;;1.40;;
56343;SDS011;42245;42.058;24.700;2024-01-16T16:46:15;1.85;;;1.35;;
56343;SDS011;42245;42.058;24.700;2024-01-16T16:48:45;2.08;;;1.60;;
56343;SDS011;42245;42.058;24.700;2024-01-16T16:51:12;1.60;;;1.30;;
56343;SDS011;42245;42.058;24.700;2024-01-16T16:53:38;2.33;;;1.65;;
56343;SDS011;42245;42.058;24.700;2024-01-16T16:56:09;2.80;;;1.70;;
56343;SDS011;42245;42.058;24.700;2024-01-16T16:58:40;2.30;;;1.58;;
56343;SDS011;42245;42.058;24.700;2024-01-16T17:01:07;2.10;;;1.60;;
56343;SDS011;42245;42.058;24.700;2024-01-16T17:03:33;2.78;;;1.80;;
56343;SDS011;42245;42.058;24.700;2024-01-16T17:05:59;2.20;;;1.70;;
56343;SDS011;42245;42.058;24.700;2024-01-16T17:08:25;2.77;;;1.70;;
56343;SDS011;42245;42.058;24.700;2024-01-16T17:10:52;3.20;;;1.58;;
56343;SDS011;42245;42.058;24.700;2024-01-16T17:13:17;3.63;;;1.60;;
56343;SDS011;42245;42.058;24.700;2024-01-16T17:15:43;2.30;;;1.57;;
56343;SDS011;42245;42.058;24.700;2024-01-16T17:18:09;2.73;;;1.87;;
56343;SDS011;42245;42.058;24.700;2024-01-16T17:20:35;2.77;;;1.90;;
56343;SDS011;42245;42.058;24.700;2024-01-16T17:23:00;4.63;;;2.40;;
56343;SDS011;42245;42.058;24.700;2024-01-16T17:25:26;2.87;;;1.80;;
56343;SDS011;42245;42.058;24.700;2024-01-16T17:27:52;1.97;;;1.67;;
56343;SDS011;42245;42.058;24.700;2024-01-16T17:30:17;2.20;;;1.83;;
56343;SDS011;42245;42.058;24.700;2024-01-16T17:32:42;3.37;;;1.80;;
56343;SDS011;42245;42.058;24.700;2024-01-16T17:35:08;3.10;;;1.93;;
56343;SDS011;42245;42.058;24.700;2024-01-16T17:37:36;2.53;;;2.00;;
56343;SDS011;42245;42.058;24.700;2024-01-16T17:40:02;4.23;;;2.03;;
56343;SDS011;42245;42.058;24.700;2024-01-16T17:42:37;2.47;;;2.07;;
56343;SDS011;42245;42.058;24.700;2024-01-16T17:45:06;2.50;;;1.90;;
56343;SDS011;42245;42.058;24.700;2024-01-16T17:47:34;3.43;;;2.30;;
56343;SDS011;42245;42.058;24.700;2024-01-16T17:50:00;3.30;;;2.20;;
56343;SDS011;42245;42.058;24.700;2024-01-16T17:52:25;2.60;;;2.13;;
56343;SDS011;42245;42.058;24.700;2024-01-16T17:54:51;3.20;;;2.33;;
56343;SDS011;42245;42.058;24.700;2024-01-16T17:57:17;4.47;;;2.80;;
56343;SDS011;42245;42.058;24.700;2024-01-16T17:59:42;4.43;;;2.50;;
56343;SDS011;42245;42.058;24.700;2024-01-16T18:02:07;3.93;;;2.80;;
56343;SDS011;42245;42.058;24.700;2024-01-16T18:04:37;4.00;;;2.47;;
56343;SDS011;42245;42.058;24.700;2024-01-16T18:07:05;4.27;;;2.20;;
56343;SDS011;42245;42.058;24.700;2024-01-16T18:09:31;4.10;;;2.60;;
56343;SDS011;42245;42.058;24.700;2024-01-16T18:11:59;3.17;;;2.33;;
56343;SDS011;42245;42.058;24.700;2024-01-16T18:14:25;4.50;;;2.43;;
56343;SDS011;42245;42.058;24.700;2024-01-16T18:16:52;3.20;;;2.50;;
56343;SDS011;42245;42.058;24.700;2024-01-16T18:19:19;2.47;;;2.10;;
56343;SDS011;42245;42.058;24.700;2024-01-16T18:21:47;4.37;;;2.33;;
56343;SDS011;42245;42.058;24.700;2024-01-16T18:24:13;3.57;;;2.27;;
56343;SDS011;42245;42.058;24.700;2024-01-16T18:26:41;3.33;;;2.57;;
56343;SDS011;42245;42.058;24.700;2024-01-16T18:29:09;3.27;;;2.57;;
56343;SDS011;42245;42.058;24.700;2024-01-16T18:31:37;3.90;;;2.50;;
56343;SDS011;42245;42.058;24.700;2024-01-16T18:34:06;3.10;;;2.40;;
56343;SDS011;42245;42.058;24.700;2024-01-16T18:36:38;3.17;;;2.20;;
56343;SDS011;42245;42.058;24.700;2024-01-16T18:39:04;3.20;;;2.40;;
56343;SDS011;42245;42.058;24.700;2024-01-16T18:41:37;3.07;;;2.40;;
56343;SDS011;42245;42.058;24.700;2024-01-16T18:44:03;3.30;;;2.40;;
56343;SDS011;42245;42.058;24.700;2024-01-16T18:46:37;3.00;;;2.23;;
56343;SDS011;42245;42.058;24.700;2024-01-16T18:49:03;3.37;;;2.30;;